Time;durP1;ratioP1;P1;durP2;ratioP2;P2;SDS_P1;SDS_P2;PMS_P1;PMS_P2;Temp;Humidity;BMP_temperature;BMP_pressure;BME280_temperature;BME280_humidity;BME280_pressure;Samples;Min_cycle;Max_cycle;Signal;HPM_P1;HPM_P2
2024/01/07 00:01:35;;;;;;;10.15;3.90;;;0.50;99.90;;;;;;5015657;28;20095;-61
2024/01/07 00:04:01;;;;;;;10.07;4.43;;;0.50;99.90;;;;;;5015856;28;20045;-61
2024/01/07 00:06:26;;;;;;;12.30;4.50;;;0.40;99.90;;;;;;5015700;28;20091;-61
2024/01/07 00:08:52;;;;;;;8.85;4.45;;;0.40;99.90;;;;;;5015716;28;20041;-61
2024/01/07 00:11:17;;;;;;;10.30;4.95;;;0.40;99.90;;;;;;5015190;28;20049;-62
2024/01/07 00:13:43;;;;;;;9.00;4.45;;;0.40;99.90;;;;;;5015736;28;20548;-61
2024/01/07 00:16:09;;;;;;;8.35;4.03;;;0.40;99.90;;;;;;5013940;28;20084;-62
2024/01/07 00:18:34;;;;;;;9.65;4.40;;;0.40;99.90;;;;;;5012140;28;20479;-62
2024/01/07 00:21:00;;;;;;;11.23;4.15;;;0.30;99.90;;;;;;5012419;28;20137;-62
2024/01/07 00:23:26;;;;;;;12.68;5.30;;;0.30;99.90;;;;;;5011577;28;20046;-62
2024/01/07 00:25:51;;;;;;;9.95;5.47;;;0.30;99.90;;;;;;4979267;28;20041;-61
2024/01/07 00:28:17;;;;;;;12.27;5.03;;;0.30;99.90;;;;;;4995688;28;20083;-62
2024/01/07 00:30:43;;;;;;;9.27;4.90;;;0.30;99.90;;;;;;4995096;28;20122;-61
2024/01/07 00:33:08;;;;;;;9.32;4.90;;;0.30;99.90;;;;;;4995397;28;20034;-61
2024/01/07 00:35:34;;;;;;;10.80;5.22;;;0.30;99.90;;;;;;4995497;28;20125;-61
2024/01/07 00:37:59;;;;;;;8.38;4.65;;;0.30;99.90;;;;;;4995233;28;20046;-62
2024/01/07 00:40:26;;;;;;;10.45;4.35;;;0.30;99.90;;;;;;4979036;28;20046;-62
2024/01/07 00:42:52;;;;;;;10.13;4.75;;;0.40;99.90;;;;;;4995472;28;20038;-62
2024/01/07 00:45:18;;;;;;;9.32;4.95;;;0.40;99.90;;;;;;4994838;28;20216;-61
2024/01/07 00:47:44;;;;;;;8.85;4.68;;;0.40;99.90;;;;;;4992719;28;20041;-61
2024/01/07 00:50:09;;;;;;;11.35;5.85;;;0.40;99.90;;;;;;5014752;28;20403;-62
2024/01/07 00:52:36;;;;;;;9.00;5.22;;;0.30;99.90;;;;;;5009972;28;20403;-62
2024/01/07 00:55:04;;;;;;;11.25;5.03;;;0.40;99.90;;;;;;4995285;28;20124;-62
2024/01/07 00:57:30;;;;;;;10.82;4.93;;;0.40;99.90;;;;;;4994937;28;20053;-61
2024/01/07 00:59:56;;;;;;;9.48;4.82;;;0.40;99.90;;;;;;4994645;28;20049;-62
2024/01/07 01:02:22;;;;;;;12.60;5.88;;;0.40;99.90;;;;;;4995231;28;20129;-62
2024/01/07 01:04:48;;;;;;;12.10;5.75;;;0.40;99.90;;;;;;5001409;28;20521;-62
2024/01/07 01:07:14;;;;;;;9.48;4.75;;;0.40;99.90;;;;;;5013565;28;20049;-63
2024/01/07 01:09:40;;;;;;;13.27;5.68;;;0.40;99.90;;;;;;5030945;28;20049;-62
2024/01/07 01:12:06;;;;;;;9.70;5.32;;;0.50;99.90;;;;;;5031269;28;20449;-61
2024/01/07 01:14:31;;;;;;;10.45;5.68;;;0.50;99.90;;;;;;5029612;28;20045;-62
2024/01/07 01:16:57;;;;;;;11.20;4.93;;;0.50;99.90;;;;;;5002358;28;20041;-62
2024/01/07 01:19:24;;;;;;;8.43;4.43;;;0.40;99.90;;;;;;4997407;28;20037;-62
2024/01/07 01:21:50;;;;;;;9.38;4.10;;;0.40;99.90;;;;;;5014434;28;20110;-61
2024/01/07 01:24:15;;;;;;;10.63;5.20;;;0.40;99.90;;;;;;4998387;28;20487;-61
2024/01/07 01:26:41;;;;;;;7.80;4.13;;;0.30;99.90;;;;;;5030087;28;20279;-62
2024/01/07 01:29:07;;;;;;;8.02;4.13;;;0.30;99.90;;;;;;5030777;28;20077;-64
2024/01/07 01:31:32;;;;;;;10.18;4.93;;;0.30;99.90;;;;;;5014303;28;20103;-62
2024/01/07 01:33:58;;;;;;;9.82;4.57;;;0.30;99.90;;;;;;5030238;28;20398;-63
2024/01/07 01:36:24;;;;;;;9.77;5.07;;;0.30;99.90;;;;;;5030446;28;20152;-61
2024/01/07 01:38:50;;;;;;;10.30;5.15;;;0.20;99.90;;;;;;5031882;28;20048;-61
2024/01/07 01:41:18;;;;;;;10.65;5.22;;;0.30;99.90;;;;;;5031237;28;20038;-61
2024/01/07 01:43:44;;;;;;;10.77;4.65;;;0.20;99.90;;;;;;5030197;28;20124;-61
2024/01/07 01:46:09;;;;;;;10.88;5.63;;;0.30;99.90;;;;;;5030854;28;20080;-62
2024/01/07 01:48:38;;;;;;;13.05;6.15;;;0.20;99.90;;;;;;5029880;28;20045;-62
2024/01/07 01:51:04;;;;;;;12.00;5.53;;;0.20;99.90;;;;;;5014428;28;20045;-61
2024/01/07 01:53:31;;;;;;;9.90;5.13;;;0.20;99.90;;;;;;5026295;28;20044;-61
2024/01/07 01:56:00;;;;;;;10.68;4.70;;;0.20;99.90;;;;;;5033199;28;20115;-62
2024/01/07 01:58:26;;;;;;;15.45;5.28;;;0.20;99.90;;;;;;5033639;28;20041;-62
2024/01/07 02:00:52;;;;;;;11.65;5.72;;;0.20;99.90;;;;;;5050168;28;20076;-61
2024/01/07 02:03:18;;;;;;;13.85;4.68;;;0.10;99.90;;;;;;5033091;28;20088;-62
2024/01/07 02:05:44;;;;;;;10.60;4.28;;;0.10;99.90;;;;;;5017093;28;20061;-62
2024/01/07 02:08:10;;;;;;;10.40;4.38;;;0.10;99.90;;;;;;5017123;28;20049;-62
2024/01/07 02:10:36;;;;;;;10.02;4.25;;;0.10;99.90;;;;;;5032676;28;20043;-62
2024/01/07 02:13:05;;;;;;;9.32;4.15;;;0.00;99.90;;;;;;5033906;28;20405;-62
2024/01/07 02:15:31;;;;;;;9.15;4.78;;;0.00;99.90;;;;;;5051040;28;20393;-62
2024/01/07 02:17:56;;;;;;;9.75;4.20;;;0.00;99.90;;;;;;5012568;28;20038;-62
2024/01/07 02:20:23;;;;;;;10.32;4.88;;;0.00;99.90;;;;;;5015165;28;20033;-62
2024/01/07 02:22:48;;;;;;;10.90;5.00;;;0.00;99.90;;;;;;5017363;28;20520;-63
2024/01/07 02:25:14;;;;;;;9.93;4.30;;;0.00;99.90;;;;;;5017180;28;20049;-63
2024/01/07 02:27:40;;;;;;;9.85;4.65;;;0.00;99.90;;;;;;5017751;28;20171;-61
2024/01/07 02:30:06;;;;;;;9.18;4.22;;;0.00;99.90;;;;;;5017402;28;20128;-62
2024/01/07 02:32:34;;;;;;;9.95;4.18;;;-0.10;99.90;;;;;;5017111;28;20050;-62
2024/01/07 02:35:00;;;;;;;7.97;3.97;;;-0.10;99.90;;;;;;5017882;28;20403;-62
2024/01/07 02:37:26;;;;;;;8.05;3.67;;;-0.10;99.90;;;;;;5006328;28;20095;-62
2024/01/07 02:39:51;;;;;;;9.32;3.75;;;0.00;99.90;;;;;;5018009;28;20041;-62
2024/01/07 02:42:17;;;;;;;11.05;4.75;;;-0.10;99.90;;;;;;5017327;28;20048;-61
2024/01/07 02:44:43;;;;;;;8.48;3.72;;;0.00;99.90;;;;;;5016914;28;20111;-62
2024/01/07 02:47:08;;;;;;;10.02;4.15;;;0.00;99.90;;;;;;5016876;28;20126;-62
2024/01/07 02:49:34;;;;;;;9.13;4.53;;;0.00;99.90;;;;;;5033543;28;20155;-62
2024/01/07 02:52:00;;;;;;;9.68;3.88;;;0.00;99.90;;;;;;5033228;28;20041;-62
2024/01/07 02:54:25;;;;;;;10.18;4.95;;;0.00;99.90;;;;;;5000650;28;20052;-62
2024/01/07 02:56:51;;;;;;;8.38;3.85;;;0.00;99.90;;;;;;5033697;28;20044;-62
2024/01/07 02:59:17;;;;;;;9.73;4.55;;;0.10;99.90;;;;;;5032757;28;20045;-62
2024/01/07 03:01:42;;;;;;;10.15;4.47;;;0.10;99.90;;;;;;5016957;28;20037;-63
2024/01/07 03:04:10;;;;;;;10.10;3.60;;;0.10;99.90;;;;;;5033373;28;20403;-61
2024/01/07 03:06:36;;;;;;;7.95;3.50;;;0.10;99.90;;;;;;5016341;28;20046;-62
2024/01/07 03:09:02;;;;;;;7.93;3.67;;;0.20;99.90;;;;;;5026609;28;20398;-62
2024/01/07 03:11:29;;;;;;;7.65;3.70;;;0.10;99.90;;;;;;5016699;28;20521;-63
2024/01/07 03:13:55;;;;;;;9.63;4.00;;;0.20;99.90;;;;;;5016242;28;20601;-62
2024/01/07 03:16:26;;;;;;;10.10;4.18;;;0.20;99.90;;;;;;5018477;28;20494;-62
2024/01/07 03:18:52;;;;;;;7.63;3.47;;;0.20;99.90;;;;;;5036613;28;20044;-62
2024/01/07 03:21:22;;;;;;;6.25;3.08;;;0.20;99.90;;;;;;5019513;28;20041;-63
2024/01/07 03:23:48;;;;;;;6.47;2.95;;;0.20;99.90;;;;;;5020154;28;20625;-62
2024/01/07 03:26:15;;;;;;;8.70;3.50;;;0.20;99.90;;;;;;5019276;28;20147;-62
2024/01/07 03:28:41;;;;;;;7.93;3.97;;;0.20;99.90;;;;;;5036350;28;20519;-61
2024/01/07 03:31:13;;;;;;;6.43;2.58;;;0.20;99.90;;;;;;5035852;28;20065;-62
2024/01/07 03:33:40;;;;;;;10.98;3.92;;;0.30;99.90;;;;;;5035498;28;20029;-61
2024/01/07 03:36:10;;;;;;;6.65;3.38;;;0.30;99.90;;;;;;5036069;28;20539;-62
2024/01/07 03:38:37;;;;;;;7.68;3.10;;;0.20;99.90;;;;;;5036253;28;20098;-62
2024/01/07 03:41:03;;;;;;;7.68;3.03;;;0.30;99.90;;;;;;5053433;28;20048;-62
2024/01/07 03:43:29;;;;;;;8.68;2.78;;;0.30;99.90;;;;;;5036384;28;20381;-62
2024/01/07 03:45:54;;;;;;;6.30;3.08;;;0.30;99.90;;;;;;5036397;28;20049;-62
2024/01/07 03:48:20;;;;;;;7.13;2.55;;;0.30;99.90;;;;;;5034518;28;20521;-64
2024/01/07 03:50:46;;;;;;;6.35;2.58;;;0.40;99.90;;;;;;5019463;28;20094;-62
2024/01/07 03:53:12;;;;;;;6.70;2.50;;;0.30;99.90;;;;;;5034103;28;20049;-61
2024/01/07 03:55:37;;;;;;;4.60;2.15;;;0.30;99.90;;;;;;5035054;28;20106;-63
2024/01/07 03:58:05;;;;;;;7.20;3.00;;;0.30;99.90;;;;;;5019490;28;20048;-62
2024/01/07 04:00:31;;;;;;;5.65;2.53;;;0.40;99.90;;;;;;5035345;28;20121;-63
2024/01/07 04:02:57;;;;;;;6.45;2.35;;;0.40;99.90;;;;;;5049110;28;20119;-62
2024/01/07 04:05:22;;;;;;;5.47;2.55;;;0.30;99.90;;;;;;5015446;28;20057;-62
2024/01/07 04:07:48;;;;;;;5.95;2.30;;;0.30;99.90;;;;;;5015909;28;20480;-62
2024/01/07 04:10:18;;;;;;;6.00;2.28;;;0.30;99.90;;;;;;5015156;28;20042;-61
2024/01/07 04:12:44;;;;;;;7.45;3.67;;;0.40;99.90;;;;;;4999655;28;20395;-62
2024/01/07 04:15:11;;;;;;;9.40;4.40;;;0.40;99.90;;;;;;4998762;28;20041;-62
2024/01/07 04:17:37;;;;;;;9.60;4.55;;;0.40;99.90;;;;;;5015933;28;20041;-62
2024/01/07 04:20:03;;;;;;;10.50;4.47;;;0.30;99.90;;;;;;5033668;28;20483;-61
2024/01/07 04:22:29;;;;;;;6.65;3.53;;;0.40;99.90;;;;;;5008149;28;20485;-64
2024/01/07 04:24:55;;;;;;;9.23;3.55;;;0.40;99.90;;;;;;5035552;28;20094;-62
2024/01/07 04:27:20;;;;;;;9.35;4.47;;;0.40;99.90;;;;;;5035470;28;20045;-61
2024/01/07 04:29:46;;;;;;;6.38;3.30;;;0.30;99.90;;;;;;5018098;28;20041;-63
2024/01/07 04:32:12;;;;;;;8.90;4.20;;;0.40;99.90;;;;;;5022143;28;20050;-62
2024/01/07 04:34:38;;;;;;;6.35;2.50;;;0.40;99.90;;;;;;4998977;28;20049;-60
2024/01/07 04:37:03;;;;;;;6.03;2.85;;;0.40;99.90;;;;;;5014892;28;20048;-61
2024/01/07 04:39:29;;;;;;;7.65;2.78;;;0.30;99.90;;;;;;5031935;28;20034;-62
2024/01/07 04:41:54;;;;;;;5.68;2.25;;;0.30;99.90;;;;;;5033083;28;20063;-62
2024/01/07 04:44:20;;;;;;;5.80;2.45;;;0.30;99.90;;;;;;5013766;28;20073;-62
2024/01/07 04:46:48;;;;;;;5.88;2.13;;;0.30;99.90;;;;;;5032877;28;20034;-61
2024/01/07 04:49:14;;;;;;;5.00;1.80;;;0.30;99.90;;;;;;5015029;28;20041;-61
2024/01/07 04:51:39;;;;;;;5.95;2.72;;;0.30;99.90;;;;;;5033232;28;20044;-62
2024/01/07 04:54:05;;;;;;;4.97;2.67;;;0.30;99.90;;;;;;5035319;28;20395;-63
2024/01/07 04:56:32;;;;;;;6.10;3.00;;;0.30;99.90;;;;;;5034336;28;20505;-62
2024/01/07 04:58:58;;;;;;;5.22;2.33;;;0.30;99.90;;;;;;5007852;28;20048;-61
2024/01/07 05:01:23;;;;;;;6.35;2.92;;;0.30;99.90;;;;;;5014720;28;20160;-63
2024/01/07 05:03:49;;;;;;;7.85;2.17;;;0.30;99.90;;;;;;4998678;28;20037;-63
2024/01/07 05:06:15;;;;;;;6.05;2.15;;;0.30;99.90;;;;;;4979655;28;20057;-62
2024/01/07 05:08:41;;;;;;;5.32;2.25;;;0.30;99.90;;;;;;4995228;28;20483;-62
2024/01/07 05:11:07;;;;;;;7.47;2.58;;;0.40;99.90;;;;;;4995157;28;20077;-61
2024/01/07 05:13:33;;;;;;;4.75;2.38;;;0.30;99.90;;;;;;4994207;28;20052;-62
2024/01/07 05:15:58;;;;;;;9.40;2.42;;;0.40;99.90;;;;;;4995145;28;20054;-62
2024/01/07 05:18:24;;;;;;;4.07;2.00;;;0.40;99.90;;;;;;4994799;28;20042;-62
2024/01/07 05:20:51;;;;;;;5.20;1.92;;;0.40;99.90;;;;;;4977772;28;20046;-62
2024/01/07 05:23:17;;;;;;;4.57;1.75;;;0.40;99.90;;;;;;5010169;28;20109;-62
2024/01/07 05:25:44;;;;;;;7.40;2.10;;;0.40;99.90;;;;;;5013885;28;20057;-63
2024/01/07 05:28:13;;;;;;;3.55;1.42;;;0.40;99.90;;;;;;5013788;28;20045;-63
2024/01/07 05:30:39;;;;;;;4.28;2.22;;;0.40;99.90;;;;;;5014374;28;20513;-62
2024/01/07 05:33:05;;;;;;;6.07;2.20;;;0.40;99.90;;;;;;5014393;28;20045;-62
2024/01/07 05:35:31;;;;;;;5.32;2.22;;;0.50;99.90;;;;;;5031344;28;20510;-63
2024/01/07 05:37:57;;;;;;;5.05;2.35;;;0.50;99.90;;;;;;5014518;28;20076;-61
2024/01/07 05:40:23;;;;;;;5.82;1.80;;;0.50;99.90;;;;;;5013192;28;20124;-63
2024/01/07 05:42:49;;;;;;;4.22;1.58;;;0.50;99.90;;;;;;5013423;28;20439;-62
2024/01/07 05:45:14;;;;;;;3.72;1.60;;;0.50;99.90;;;;;;5014204;28;20379;-62
2024/01/07 05:47:43;;;;;;;4.28;1.83;;;0.50;99.90;;;;;;5013335;28;20091;-62
2024/01/07 05:50:10;;;;;;;6.22;2.55;;;0.50;99.90;;;;;;5014294;28;20041;-62
2024/01/07 05:52:36;;;;;;;4.28;1.67;;;0.50;99.90;;;;;;5013974;28;20121;-62
2024/01/07 05:55:02;;;;;;;3.97;2.03;;;0.50;99.90;;;;;;5012865;28;20474;-63
2024/01/07 05:57:28;;;;;;;3.95;1.40;;;0.50;99.90;;;;;;4998075;28;20103;-62
2024/01/07 05:59:54;;;;;;;3.70;1.38;;;0.50;99.90;;;;;;5013925;28;20033;-61
2024/01/07 06:02:22;;;;;;;4.90;1.35;;;0.50;99.90;;;;;;5013220;28;20045;-60
2024/01/07 06:04:48;;;;;;;6.75;2.50;;;0.50;99.90;;;;;;5020129;28;20166;-62
2024/01/07 06:07:13;;;;;;;3.08;1.30;;;0.50;99.90;;;;;;5033772;28;20111;-62
2024/01/07 06:09:39;;;;;;;5.53;1.88;;;0.50;99.90;;;;;;5049719;28;20040;-61
2024/01/07 06:12:05;;;;;;;4.60;1.80;;;0.50;99.90;;;;;;5033141;28;20102;-62
2024/01/07 06:14:31;;;;;;;6.97;1.92;;;0.50;99.90;;;;;;5033119;28;20072;-61
2024/01/07 06:16:56;;;;;;;5.22;1.95;;;0.50;99.90;;;;;;5050066;28;20045;-62
2024/01/07 06:19:22;;;;;;;4.45;2.10;;;0.50;99.90;;;;;;5050188;28;20048;-62
2024/01/07 06:21:48;;;;;;;4.78;1.40;;;0.50;99.90;;;;;;5049563;28;20052;-62
2024/01/07 06:24:14;;;;;;;3.75;1.52;;;0.50;99.90;;;;;;4997390;28;20089;-62
2024/01/07 06:26:40;;;;;;;5.10;1.58;;;0.50;99.90;;;;;;5013979;28;20131;-62
2024/01/07 06:29:06;;;;;;;4.20;1.02;;;0.50;99.90;;;;;;5013410;28;20698;-62
2024/01/07 06:31:32;;;;;;;8.55;4.22;;;0.50;99.90;;;;;;5031053;28;20041;-62
2024/01/07 06:33:58;;;;;;;6.50;3.22;;;0.50;99.90;;;;;;5014006;28;20093;-62
2024/01/07 06:36:25;;;;;;;3.70;1.80;;;0.50;99.90;;;;;;5012976;28;20073;-62
2024/01/07 06:38:50;;;;;;;5.60;2.05;;;0.50;99.90;;;;;;5031332;28;20040;-62
2024/01/07 06:41:16;;;;;;;4.97;2.25;;;0.50;99.90;;;;;;5013676;28;20041;-62
2024/01/07 06:43:42;;;;;;;5.68;1.88;;;0.50;99.90;;;;;;5045563;28;20128;-61
2024/01/07 06:46:08;;;;;;;4.88;2.42;;;0.50;99.90;;;;;;5030315;28;20045;-61
2024/01/07 06:48:33;;;;;;;5.28;2.40;;;0.50;99.90;;;;;;5026496;28;20116;-61
2024/01/07 06:50:59;;;;;;;3.33;1.40;;;0.50;99.90;;;;;;4999881;28;20094;-61
2024/01/07 06:53:25;;;;;;;3.63;1.60;;;0.50;99.90;;;;;;5033296;28;20044;-61
2024/01/07 06:55:50;;;;;;;4.53;1.83;;;0.50;99.90;;;;;;5023815;28;20049;-61
2024/01/07 06:58:16;;;;;;;4.97;1.48;;;0.40;99.90;;;;;;5029164;28;20037;-60
2024/01/07 07:00:42;;;;;;;3.92;1.23;;;0.40;99.90;;;;;;5029880;28;20037;-60
2024/01/07 07:03:08;;;;;;;6.30;2.00;;;0.40;99.90;;;;;;5013711;28;20056;-62
2024/01/07 07:05:34;;;;;;;5.18;1.63;;;0.50;99.90;;;;;;4999975;28;20062;-61
2024/01/07 07:08:01;;;;;;;6.97;2.55;;;0.50;99.90;;;;;;5000589;28;20059;-62
2024/01/07 07:10:26;;;;;;;4.03;1.60;;;0.40;99.90;;;;;;5034743;28;20410;-61
2024/01/07 07:12:52;;;;;;;5.45;2.95;;;0.40;99.90;;;;;;5016114;28;20050;-61
2024/01/07 07:15:18;;;;;;;4.25;1.92;;;0.40;99.90;;;;;;5000468;28;20049;-62
2024/01/07 07:17:44;;;;;;;6.07;1.73;;;0.40;99.90;;;;;;5017091;28;20044;-62
2024/01/07 07:20:11;;;;;;;4.10;1.60;;;0.40;99.90;;;;;;5033945;28;20033;-61
2024/01/07 07:22:37;;;;;;;3.95;1.50;;;0.40;99.90;;;;;;5034538;28;20037;-60
2024/01/07 07:25:03;;;;;;;9.45;5.05;;;0.30;99.90;;;;;;4982225;28;20052;-61
2024/01/07 07:27:29;;;;;;;7.15;2.40;;;0.40;99.90;;;;;;5015666;28;20051;-61
2024/01/07 07:29:54;;;;;;;5.20;2.03;;;0.30;99.90;;;;;;5001302;28;20084;-61
2024/01/07 07:32:20;;;;;;;6.88;3.90;;;0.30;99.90;;;;;;5006981;28;20045;-61
2024/01/07 07:34:48;;;;;;;5.88;2.85;;;0.30;99.90;;;;;;4996844;28;20129;-60
2024/01/07 07:37:14;;;;;;;5.43;2.17;;;0.20;99.90;;;;;;4980514;28;20479;-60
2024/01/07 07:39:40;;;;;;;4.85;2.28;;;0.20;99.90;;;;;;4996357;28;20121;-60
2024/01/07 07:42:05;;;;;;;5.72;2.15;;;0.10;99.90;;;;;;5014387;28;20078;-60
2024/01/07 07:44:31;;;;;;;6.13;2.00;;;0.10;99.90;;;;;;4996570;28;20053;-61
2024/01/07 07:46:57;;;;;;;3.20;1.27;;;0.10;99.90;;;;;;4997312;28;20046;-61
2024/01/07 07:49:23;;;;;;;5.47;1.70;;;0.10;99.90;;;;;;5014232;28;20064;-61
2024/01/07 07:51:48;;;;;;;5.55;1.83;;;0.10;99.90;;;;;;5002255;28;20094;-61
2024/01/07 07:54:14;;;;;;;3.45;1.52;;;0.10;99.90;;;;;;5015415;28;20160;-61
2024/01/07 07:56:40;;;;;;;4.32;1.88;;;0.00;99.90;;;;;;4999785;28;20053;-61
2024/01/07 07:59:05;;;;;;;5.95;2.10;;;0.00;99.90;;;;;;5034290;28;20037;-61
2024/01/07 08:01:31;;;;;;;4.35;1.67;;;0.00;99.90;;;;;;5032673;28;20069;-60
2024/01/07 08:03:56;;;;;;;3.72;1.55;;;-0.10;99.90;;;;;;5016421;28;20132;-61
2024/01/07 08:06:22;;;;;;;6.72;2.50;;;0.00;99.90;;;;;;5035123;28;20053;-61
2024/01/07 08:08:48;;;;;;;4.32;2.20;;;0.00;99.90;;;;;;5034532;28;20116;-62
2024/01/07 08:11:13;;;;;;;4.70;2.00;;;0.00;99.90;;;;;;5035400;28;20041;-60
2024/01/07 08:13:39;;;;;;;6.60;2.72;;;0.00;99.90;;;;;;5035490;28;20041;-61
2024/01/07 08:16:06;;;;;;;5.68;2.60;;;0.00;99.90;;;;;;5033384;28;20041;-61
2024/01/07 08:18:31;;;;;;;4.25;1.77;;;0.00;99.90;;;;;;5035203;28;20099;-60
2024/01/07 08:20:58;;;;;;;5.93;2.13;;;0.00;99.90;;;;;;5035671;28;20044;-60
2024/01/07 08:23:27;;;;;;;4.95;1.55;;;0.00;99.90;;;;;;5034706;28;20037;-60
2024/01/07 08:25:52;;;;;;;6.60;1.92;;;0.00;99.90;;;;;;5035611;28;20059;-60
2024/01/07 08:28:18;;;;;;;11.23;6.53;;;0.10;99.90;;;;;;5051963;28;20128;-62
2024/01/07 08:30:44;;;;;;;26.05;11.88;;;0.10;99.90;;;;;;5034673;28;20047;-62
2024/01/07 08:33:10;;;;;;;88.28;37.15;;;0.10;99.90;;;;;;5035139;28;20044;-62
2024/01/07 08:35:36;;;;;;;51.58;21.42;;;0.20;99.90;;;;;;5052257;28;20044;-62
2024/01/07 08:38:01;;;;;;;32.55;13.93;;;0.20;99.90;;;;;;5032770;28;20135;-61
2024/01/07 08:40:29;;;;;;;32.13;14.35;;;0.20;99.90;;;;;;5016263;28;20045;-60
2024/01/07 08:42:55;;;;;;;38.78;18.77;;;0.20;99.90;;;;;;5021576;28;20506;-61
2024/01/07 08:45:20;;;;;;;10.60;7.47;;;0.20;99.90;;;;;;4999206;28;20045;-62
2024/01/07 08:47:46;;;;;;;8.38;4.03;;;0.20;99.90;;;;;;5015167;28;20116;-61
2024/01/07 08:50:12;;;;;;;5.90;3.33;;;0.20;99.90;;;;;;5032052;28;20045;-60
2024/01/07 08:52:38;;;;;;;6.03;2.67;;;0.30;99.90;;;;;;5015002;28;20049;-61
2024/01/07 08:55:06;;;;;;;6.90;2.83;;;0.30;99.90;;;;;;5031689;28;20135;-61
2024/01/07 08:57:32;;;;;;;6.82;2.42;;;0.30;99.90;;;;;;5031833;28;20410;-61
2024/01/07 08:59:58;;;;;;;6.75;2.28;;;0.30;99.90;;;;;;5015478;28;20479;-61
2024/01/07 09:02:24;;;;;;;6.72;3.17;;;0.30;99.90;;;;;;4998589;28;20037;-61
2024/01/07 09:04:50;;;;;;;9.25;3.17;;;0.30;99.90;;;;;;5010744;28;20089;-60
2024/01/07 09:07:16;;;;;;;8.75;3.35;;;0.30;99.90;;;;;;5030470;28;20045;-61
2024/01/07 09:09:42;;;;;;;5.82;2.72;;;0.30;99.90;;;;;;5032279;28;20045;-61
2024/01/07 09:12:08;;;;;;;5.55;2.42;;;0.30;99.90;;;;;;5030569;28;20045;-62
2024/01/07 09:14:34;;;;;;;7.65;2.85;;;0.30;99.90;;;;;;5031564;28;20045;-62
2024/01/07 09:16:59;;;;;;;7.47;3.88;;;0.30;99.90;;;;;;5032693;28;20394;-61
2024/01/07 09:19:25;;;;;;;6.20;2.67;;;0.30;99.90;;;;;;5031303;28;20033;-62
2024/01/07 09:21:50;;;;;;;7.68;3.40;;;0.40;99.90;;;;;;5031118;28;20038;-61
2024/01/07 09:24:16;;;;;;;5.30;2.33;;;0.40;99.90;;;;;;5030456;28;20041;-60
2024/01/07 09:26:42;;;;;;;6.80;2.00;;;0.40;99.90;;;;;;5046754;28;20053;-61
2024/01/07 09:29:07;;;;;;;5.05;2.58;;;0.40;99.90;;;;;;5018486;28;20045;-61
2024/01/07 09:31:33;;;;;;;5.13;2.20;;;0.40;99.90;;;;;;5026377;28;20120;-61
2024/01/07 09:33:59;;;;;;;5.05;2.03;;;0.40;99.90;;;;;;5023466;28;20040;-60
2024/01/07 09:36:24;;;;;;;5.15;2.15;;;0.40;99.90;;;;;;5007937;28;20172;-61
2024/01/07 09:38:50;;;;;;;4.97;1.90;;;0.40;99.90;;;;;;5012447;28;20041;-61
2024/01/07 09:41:16;;;;;;;5.03;2.00;;;0.50;99.90;;;;;;5043817;28;20038;-60
2024/01/07 09:43:41;;;;;;;4.95;1.90;;;0.50;99.90;;;;;;5027741;28;20038;-60
2024/01/07 09:46:07;;;;;;;4.53;1.73;;;0.50;99.90;;;;;;5025511;28;20530;-60
2024/01/07 09:48:33;;;;;;;5.90;3.30;;;0.50;99.90;;;;;;5027989;28;20410;-61
2024/01/07 09:51:04;;;;;;;7.18;2.80;;;0.50;99.90;;;;;;5028682;28;20046;-60
2024/01/07 09:53:32;;;;;;;6.70;2.00;;;0.50;99.90;;;;;;5026920;28;20045;-61
2024/01/07 09:56:20;;;;;;;6.75;2.38;;;0.60;99.90;;;;;;5028587;28;20514;-61
2024/01/07 09:58:49;;;;;;;4.68;2.15;;;0.60;99.90;;;;;;5027862;28;20125;-62
2024/01/07 10:01:18;;;;;;;4.47;1.92;;;0.60;99.90;;;;;;5026935;28;20047;-60
2024/01/07 10:03:44;;;;;;;4.43;1.77;;;0.60;99.90;;;;;;5036027;28;20049;-61
2024/01/07 10:06:13;;;;;;;4.00;1.77;;;0.70;99.90;;;;;;5030556;28;20058;-60
2024/01/07 10:08:39;;;;;;;4.75;1.42;;;0.70;99.90;;;;;;5000478;28;20447;-60
2024/01/07 10:11:04;;;;;;;4.60;1.75;;;0.70;99.90;;;;;;5027455;28;20513;-61
2024/01/07 10:13:32;;;;;;;5.88;2.40;;;0.80;99.90;;;;;;5021820;28;20041;-60
2024/01/07 10:15:57;;;;;;;9.40;3.50;;;0.80;99.90;;;;;;5022757;28;20048;-61
2024/01/07 10:18:24;;;;;;;3.85;1.98;;;0.80;99.90;;;;;;5000250;28;20038;-60
2024/01/07 10:20:50;;;;;;;6.05;2.20;;;0.80;99.90;;;;;;5009583;28;20041;-62
2024/01/07 10:23:19;;;;;;;5.97;2.50;;;0.80;99.90;;;;;;5014091;28;20372;-61
2024/01/07 10:25:45;;;;;;;4.57;1.50;;;0.80;99.90;;;;;;5006311;28;20050;-61
2024/01/07 10:28:11;;;;;;;5.13;1.63;;;0.90;99.90;;;;;;5024057;28;20045;-61
2024/01/07 10:30:40;;;;;;;4.95;2.10;;;0.90;99.90;;;;;;5023856;28;20048;-60
2024/01/07 10:33:07;;;;;;;5.05;2.20;;;0.90;99.90;;;;;;5015800;28;20061;-61
2024/01/07 10:35:35;;;;;;;4.80;2.40;;;0.90;99.90;;;;;;5017063;28;20129;-62
2024/01/07 10:38:01;;;;;;;5.28;2.28;;;0.90;99.90;;;;;;5024665;28;20046;-61
2024/01/07 10:40:29;;;;;;;6.63;2.80;;;0.90;99.90;;;;;;5027383;28;20223;-60
2024/01/07 10:42:55;;;;;;;5.28;2.25;;;0.90;99.90;;;;;;5024461;28;20052;-61
2024/01/07 10:45:22;;;;;;;8.10;2.97;;;1.00;99.90;;;;;;5030518;28;20168;-60
2024/01/07 10:47:54;;;;;;;4.35;2.03;;;1.00;99.90;;;;;;5027738;28;20045;-60
2024/01/07 10:50:21;;;;;;;4.85;2.08;;;1.00;99.90;;;;;;5017720;28;20049;-60
2024/01/07 10:52:57;;;;;;;7.28;2.58;;;1.00;99.90;;;;;;5029623;28;20056;-61
2024/01/07 10:55:25;;;;;;;;;;;1.00;99.90;;;;;;5014128;28;20410;-61
2024/01/07 10:57:53;;;;;;;4.78;1.92;;;1.00;99.90;;;;;;5025766;28;19991;-61
2024/01/07 11:00:19;;;;;;;4.15;1.73;;;1.00;99.90;;;;;;5022257;28;20060;-61
2024/01/07 11:02:51;;;;;;;6.68;2.42;;;1.10;99.90;;;;;;5025668;28;20049;-61
2024/01/07 11:05:36;;;;;;;5.68;3.35;;;1.10;99.90;;;;;;5016858;28;20057;-62
2024/01/07 11:08:21;;;;;;;6.43;3.20;;;1.20;99.90;;;;;;5034118;28;20059;-61
2024/01/07 11:10:53;;;;;;;5.25;1.92;;;1.30;99.90;;;;;;5032669;28;20512;-62
2024/01/07 11:13:38;;;;;;;5.03;1.95;;;1.20;99.90;;;;;;5032943;28;20048;-61
2024/01/07 11:16:05;;;;;;;5.10;2.10;;;1.20;99.90;;;;;;5015123;28;20047;-60
2024/01/07 11:18:33;;;;;;;6.00;1.92;;;1.20;99.90;;;;;;5015809;28;20087;-60
2024/01/07 11:21:03;;;;;;;6.93;4.25;;;1.30;99.90;;;;;;5027299;28;20049;-61
2024/01/07 11:23:30;;;;;;;8.13;3.17;;;1.20;99.90;;;;;;5029062;28;20052;-61
2024/01/07 11:26:00;;;;;;;5.93;2.28;;;1.20;99.90;;;;;;5050268;28;20041;-61
2024/01/07 11:28:47;;;;;;;8.57;3.65;;;1.20;99.90;;;;;;5029873;28;20048;-62
2024/01/07 11:31:15;;;;;;;6.80;3.85;;;1.30;99.90;;;;;;5032254;28;20052;-60
2024/01/07 11:33:50;;;;;;;8.75;4.07;;;1.30;99.90;;;;;;5013911;28;20041;-60
2024/01/07 11:36:17;;;;;;;8.07;4.57;;;1.40;99.90;;;;;;5024605;28;20682;-61
2024/01/07 11:38:50;;;;;;;6.20;2.25;;;1.40;99.90;;;;;;5032548;28;20048;-61
2024/01/07 11:41:17;;;;;;;7.53;3.13;;;1.40;99.90;;;;;;5033404;28;20095;-61
2024/01/07 11:43:53;;;;;;;5.97;2.10;;;1.40;99.90;;;;;;5025896;28;20049;-62
2024/01/07 11:46:19;;;;;;;5.07;2.25;;;1.40;99.90;;;;;;5014312;28;20077;-62
2024/01/07 11:48:48;;;;;;;6.10;3.00;;;1.40;99.90;;;;;;5033334;28;20079;-60
2024/01/07 11:51:14;;;;;;;3.95;1.80;;;1.40;99.90;;;;;;5046964;28;20033;-61
2024/01/07 11:53:39;;;;;;;5.18;1.98;;;1.40;99.90;;;;;;5030735;28;20068;-61
2024/01/07 11:56:08;;;;;;;4.38;2.35;;;1.30;99.90;;;;;;5028274;28;20063;-62
2024/01/07 11:58:33;;;;;;;6.20;2.80;;;1.30;99.90;;;;;;5048745;28;20041;-61
2024/01/07 12:00:59;;;;;;;8.55;3.50;;;1.30;99.90;;;;;;5011867;28;20561;-62
2024/01/07 12:03:24;;;;;;;6.72;2.53;;;1.20;99.90;;;;;;5033003;28;20040;-62
2024/01/07 12:05:51;;;;;;;5.68;2.35;;;1.20;99.90;;;;;;5037200;28;20049;-62
2024/01/07 12:08:17;;;;;;;8.45;3.92;;;1.10;99.90;;;;;;5018596;28;20467;-60
2024/01/07 12:10:43;;;;;;;7.57;4.60;;;1.10;99.90;;;;;;5049125;28;20055;-62
2024/01/07 12:13:10;;;;;;;10.35;3.65;;;1.10;99.90;;;;;;5032204;28;20041;-60
2024/01/07 12:15:38;;;;;;;9.73;3.53;;;1.10;99.90;;;;;;5031358;28;20048;-61
2024/01/07 12:18:04;;;;;;;6.18;2.55;;;1.10;99.90;;;;;;5032762;28;20048;-62
2024/01/07 12:20:30;;;;;;;5.57;2.75;;;1.10;99.90;;;;;;5024396;28;20037;-62
2024/01/07 12:22:57;;;;;;;7.53;3.40;;;1.10;99.90;;;;;;5029713;28;20056;-62
2024/01/07 12:25:26;;;;;;;9.40;3.75;;;1.20;99.90;;;;;;5012360;28;20099;-61
2024/01/07 12:27:55;;;;;;;7.50;2.70;;;1.20;99.90;;;;;;5025342;28;20803;-62
2024/01/07 12:30:21;;;;;;;7.22;2.67;;;1.20;99.90;;;;;;5028040;28;20470;-60
2024/01/07 12:32:47;;;;;;;8.98;2.65;;;1.20;99.90;;;;;;5017388;28;20106;-61
2024/01/07 12:35:12;;;;;;;5.90;2.67;;;1.20;99.90;;;;;;5011665;28;20045;-62
2024/01/07 12:37:38;;;;;;;4.88;2.35;;;1.30;99.90;;;;;;5023467;28;20098;-60
2024/01/07 12:40:06;;;;;;;9.07;3.10;;;1.30;99.90;;;;;;5030437;28;20048;-59
2024/01/07 12:42:32;;;;;;;6.15;2.72;;;1.30;99.90;;;;;;5031495;28;20041;-61
2024/01/07 12:44:58;;;;;;;7.00;2.17;;;1.30;99.90;;;;;;5032889;28;20045;-63
2024/01/07 12:47:24;;;;;;;5.68;2.10;;;1.30;99.90;;;;;;5015748;28;20037;-62
2024/01/07 12:49:50;;;;;;;4.70;2.45;;;1.30;99.90;;;;;;5049573;28;20055;-61
2024/01/07 12:52:15;;;;;;;5.63;2.58;;;1.30;99.90;;;;;;5032632;28;20128;-61